sensor_id;sensor_type;location;lat;lon;timestamp;P1;durP1;ratioP1;P2;durP2;ratioP2
64712;SDS011;51140;45.340;5.980;2022-08-21T00:01:47;5.40;;;1.02;;
64712;SDS011;51140;45.340;5.980;2022-08-21T00:04:13;2.38;;;0.80;;
64712;SDS011;51140;45.340;5.980;2022-08-21T00:06:39;3.42;;;1.05;;
64712;SDS011;51140;45.340;5.980;2022-08-21T00:09:05;3.33;;;0.98;;
64712;SDS011;51140;45.340;5.980;2022-08-21T00:11:32;2.03;;;0.90;;
64712;SDS011;51140;45.340;5.980;2022-08-21T00:14:00;1.77;;;0.90;;
64712;SDS011;51140;45.340;5.980;2022-08-21T00:16:26;3.53;;;1.10;;
64712;SDS011;51140;45.340;5.980;2022-08-21T00:18:51;2.67;;;1.00;;
64712;SDS011;51140;45.340;5.980;2022-08-21T00:21:17;4.20;;;0.90;;
64712;SDS011;51140;45.340;5.980;2022-08-21T00:23:42;3.35;;;1.00;;
64712;SDS011;51140;45.340;5.980;2022-08-21T00:26:08;3.65;;;0.90;;
64712;SDS011;51140;45.340;5.980;2022-08-21T00:28:34;2.92;;;1.17;;
64712;SDS011;51140;45.340;5.980;2022-08-21T00:31:00;3.25;;;1.00;;
64712;SDS011;51140;45.340;5.980;2022-08-21T00:33:28;4.47;;;0.90;;
64712;SDS011;51140;45.340;5.980;2022-08-21T00:35:54;3.50;;;1.10;;
64712;SDS011;51140;45.340;5.980;2022-08-21T00:38:20;3.83;;;1.13;;
64712;SDS011;51140;45.340;5.980;2022-08-21T00:40:47;3.75;;;0.93;;
64712;SDS011;51140;45.340;5.980;2022-08-21T00:43:17;2.25;;;1.00;;
64712;SDS011;51140;45.340;5.980;2022-08-21T00:45:44;1.58;;;0.80;;
64712;SDS011;51140;45.340;5.980;2022-08-21T00:48:10;4.35;;;1.10;;
64712;SDS011;51140;45.340;5.980;2022-08-21T00:50:38;5.03;;;1.10;;
64712;SDS011;51140;45.340;5.980;2022-08-21T00:53:08;2.47;;;0.93;;
64712;SDS011;51140;45.340;5.980;2022-08-21T00:55:36;4.22;;;0.95;;
64712;SDS011;51140;45.340;5.980;2022-08-21T00:58:02;2.50;;;1.10;;
64712;SDS011;51140;45.340;5.980;2022-08-21T01:00:32;5.30;;;0.98;;
64712;SDS011;51140;45.340;5.980;2022-08-21T01:03:00;3.78;;;0.98;;
64712;SDS011;51140;45.340;5.980;2022-08-21T01:05:30;3.75;;;0.90;;
64712;SDS011;51140;45.340;5.980;2022-08-21T01:07:56;3.28;;;1.00;;
64712;SDS011;51140;45.340;5.980;2022-08-21T01:10:22;2.67;;;0.93;;
64712;SDS011;51140;45.340;5.980;2022-08-21T01:12:48;6.88;;;1.40;;
64712;SDS011;51140;45.340;5.980;2022-08-21T01:15:15;2.05;;;1.00;;
64712;SDS011;51140;45.340;5.980;2022-08-21T01:17:43;1.70;;;1.00;;
64712;SDS011;51140;45.340;5.980;2022-08-21T01:20:10;3.13;;;1.08;;
64712;SDS011;51140;45.340;5.980;2022-08-21T01:22:37;2.85;;;1.08;;
64712;SDS011;51140;45.340;5.980;2022-08-21T01:25:04;2.95;;;1.00;;
64712;SDS011;51140;45.340;5.980;2022-08-21T01:27:32;4.10;;;1.00;;
64712;SDS011;51140;45.340;5.980;2022-08-21T01:29:59;6.38;;;1.27;;
64712;SDS011;51140;45.340;5.980;2022-08-21T01:32:32;3.90;;;1.17;;
64712;SDS011;51140;45.340;5.980;2022-08-21T01:34:58;5.15;;;1.15;;
64712;SDS011;51140;45.340;5.980;2022-08-21T01:37:23;3.63;;;1.10;;
64712;SDS011;51140;45.340;5.980;2022-08-21T01:39:49;4.90;;;1.30;;
64712;SDS011;51140;45.340;5.980;2022-08-21T01:42:15;2.47;;;1.10;;
64712;SDS011;51140;45.340;5.980;2022-08-21T01:44:41;2.67;;;1.30;;
64712;SDS011;51140;45.340;5.980;2022-08-21T01:47:07;5.60;;;1.20;;
64712;SDS011;51140;45.340;5.980;2022-08-21T01:49:36;4.18;;;1.00;;
64712;SDS011;51140;45.340;5.980;2022-08-21T01:52:02;5.82;;;1.20;;
64712;SDS011;51140;45.340;5.980;2022-08-21T01:54:28;4.60;;;1.10;;
64712;SDS011;51140;45.340;5.980;2022-08-21T01:56:55;6.18;;;1.30;;
64712;SDS011;51140;45.340;5.980;2022-08-21T01:59:21;2.03;;;1.08;;
64712;SDS011;51140;45.340;5.980;2022-08-21T02:01:48;2.72;;;1.17;;
64712;SDS011;51140;45.340;5.980;2022-08-21T02:04:14;3.13;;;1.00;;
64712;SDS011;51140;45.340;5.980;2022-08-21T02:06:39;3.53;;;1.13;;
64712;SDS011;51140;45.340;5.980;2022-08-21T02:09:05;3.20;;;1.13;;
64712;SDS011;51140;45.340;5.980;2022-08-21T02:11:32;2.75;;;1.17;;
64712;SDS011;51140;45.340;5.980;2022-08-21T02:13:59;4.88;;;1.10;;
64712;SDS011;51140;45.340;5.980;2022-08-21T02:16:24;2.13;;;1.08;;
64712;SDS011;51140;45.340;5.980;2022-08-21T02:18:50;3.95;;;1.30;;
64712;SDS011;51140;45.340;5.980;2022-08-21T02:21:16;5.18;;;1.35;;
64712;SDS011;51140;45.340;5.980;2022-08-21T02:23:41;4.43;;;1.30;;
64712;SDS011;51140;45.340;5.980;2022-08-21T02:26:07;2.92;;;1.17;;
64712;SDS011;51140;45.340;5.980;2022-08-21T02:28:33;2.83;;;1.20;;
64712;SDS011;51140;45.340;5.980;2022-08-21T02:30:59;2.90;;;1.00;;
64712;SDS011;51140;45.340;5.980;2022-08-21T02:33:25;2.85;;;1.23;;
64712;SDS011;51140;45.340;5.980;2022-08-21T02:35:51;4.65;;;1.00;;
64712;SDS011;51140;45.340;5.980;2022-08-21T02:38:19;3.15;;;1.10;;
64712;SDS011;51140;45.340;5.980;2022-08-21T02:40:49;2.25;;;1.00;;
64712;SDS011;51140;45.340;5.980;2022-08-21T02:43:16;3.03;;;1.20;;
64712;SDS011;51140;45.340;5.980;2022-08-21T02:45:42;4.70;;;1.20;;
64712;SDS011;51140;45.340;5.980;2022-08-21T02:48:09;5.88;;;1.30;;
64712;SDS011;51140;45.340;5.980;2022-08-21T02:50:41;4.93;;;1.05;;
64712;SDS011;51140;45.340;5.980;2022-08-21T02:53:09;3.38;;;1.02;;
64712;SDS011;51140;45.340;5.980;2022-08-21T02:55:36;3.17;;;1.17;;
64712;SDS011;51140;45.340;5.980;2022-08-21T02:58:03;4.88;;;1.10;;
64712;SDS011;51140;45.340;5.980;2022-08-21T03:00:30;1.73;;;0.90;;
64712;SDS011;51140;45.340;5.980;2022-08-21T03:02:56;5.03;;;1.25;;
64712;SDS011;51140;45.340;5.980;2022-08-21T03:05:23;4.15;;;1.20;;
64712;SDS011;51140;45.340;5.980;2022-08-21T03:07:50;3.97;;;1.15;;
64712;SDS011;51140;45.340;5.980;2022-08-21T03:10:17;2.75;;;1.10;;
64712;SDS011;51140;45.340;5.980;2022-08-21T03:12:44;4.13;;;1.17;;
64712;SDS011;51140;45.340;5.980;2022-08-21T03:15:11;3.17;;;1.15;;
64712;SDS011;51140;45.340;5.980;2022-08-21T03:17:38;3.28;;;1.10;;
64712;SDS011;51140;45.340;5.980;2022-08-21T03:20:04;4.30;;;1.10;;
64712;SDS011;51140;45.340;5.980;2022-08-21T03:22:31;2.97;;;1.20;;
64712;SDS011;51140;45.340;5.980;2022-08-21T03:24:57;3.20;;;1.20;;
64712;SDS011;51140;45.340;5.980;2022-08-21T03:27:23;4.50;;;1.10;;
64712;SDS011;51140;45.340;5.980;2022-08-21T03:29:49;2.97;;;1.10;;
64712;SDS011;51140;45.340;5.980;2022-08-21T03:32:15;3.17;;;1.10;;
64712;SDS011;51140;45.340;5.980;2022-08-21T03:34:40;4.38;;;1.30;;
64712;SDS011;51140;45.340;5.980;2022-08-21T03:37:07;6.05;;;1.30;;
64712;SDS011;51140;45.340;5.980;2022-08-21T03:39:33;3.05;;;1.02;;
64712;SDS011;51140;45.340;5.980;2022-08-21T03:41:59;2.40;;;1.20;;
64712;SDS011;51140;45.340;5.980;2022-08-21T03:44:26;5.78;;;1.13;;
64712;SDS011;51140;45.340;5.980;2022-08-21T03:46:54;2.88;;;1.10;;
64712;SDS011;51140;45.340;5.980;2022-08-21T03:49:20;2.47;;;1.08;;
64712;SDS011;51140;45.340;5.980;2022-08-21T03:51:46;2.13;;;0.95;;
64712;SDS011;51140;45.340;5.980;2022-08-21T03:54:11;3.10;;;1.23;;
64712;SDS011;51140;45.340;5.980;2022-08-21T03:56:36;3.65;;;1.02;;
64712;SDS011;51140;45.340;5.980;2022-08-21T03:59:02;3.58;;;1.17;;
64712;SDS011;51140;45.340;5.980;2022-08-21T04:01:28;2.65;;;1.17;;
64712;SDS011;51140;45.340;5.980;2022-08-21T04:03:53;3.35;;;1.25;;
64712;SDS011;51140;45.340;5.980;2022-08-21T04:06:19;6.05;;;1.20;;
64712;SDS011;51140;45.340;5.980;2022-08-21T04:08:44;8.82;;;1.50;;
64712;SDS011;51140;45.340;5.980;2022-08-21T04:11:10;5.57;;;1.17;;
64712;SDS011;51140;45.340;5.980;2022-08-21T04:13:35;3.58;;;1.23;;
64712;SDS011;51140;45.340;5.980;2022-08-21T04:16:02;4.22;;;1.20;;
64712;SDS011;51140;45.340;5.980;2022-08-21T04:18:27;6.25;;;1.13;;
64712;SDS011;51140;45.340;5.980;2022-08-21T04:20:53;3.13;;;1.20;;
64712;SDS011;51140;45.340;5.980;2022-08-21T04:23:20;3.65;;;1.00;;
64712;SDS011;51140;45.340;5.980;2022-08-21T04:25:46;3.38;;;1.30;;
64712;SDS011;51140;45.340;5.980;2022-08-21T04:28:11;6.80;;;1.30;;
64712;SDS011;51140;45.340;5.980;2022-08-21T04:30:37;8.02;;;1.60;;
64712;SDS011;51140;45.340;5.980;2022-08-21T04:33:02;5.00;;;1.20;;
64712;SDS011;51140;45.340;5.980;2022-08-21T04:35:28;2.63;;;1.20;;
64712;SDS011;51140;45.340;5.980;2022-08-21T04:37:55;3.58;;;1.20;;
64712;SDS011;51140;45.340;5.980;2022-08-21T04:40:21;3.60;;;1.20;;
64712;SDS011;51140;45.340;5.980;2022-08-21T04:43:00;4.03;;;1.20;;
64712;SDS011;51140;45.340;5.980;2022-08-21T04:45:34;2.85;;;1.10;;
64712;SDS011;51140;45.340;5.980;2022-08-21T04:48:02;5.10;;;1.38;;
64712;SDS011;51140;45.340;5.980;2022-08-21T04:53:08;4.53;;;1.23;;
64712;SDS011;51140;45.340;5.980;2022-08-21T04:55:38;3.45;;;1.13;;
64712;SDS011;51140;45.340;5.980;2022-08-21T04:58:08;3.05;;;1.20;;
64712;SDS011;51140;45.340;5.980;2022-08-21T05:00:37;3.95;;;1.30;;
64712;SDS011;51140;45.340;5.980;2022-08-21T05:03:02;4.38;;;1.20;;
64712;SDS011;51140;45.340;5.980;2022-08-21T05:05:31;5.88;;;1.27;;
64712;SDS011;51140;45.340;5.980;2022-08-21T05:07:57;4.20;;;1.25;;
64712;SDS011;51140;45.340;5.980;2022-08-21T05:10:26;6.20;;;1.30;;
64712;SDS011;51140;45.340;5.980;2022-08-21T05:12:51;3.08;;;1.33;;
64712;SDS011;51140;45.340;5.980;2022-08-21T05:15:17;5.95;;;1.40;;
64712;SDS011;51140;45.340;5.980;2022-08-21T05:17:43;6.45;;;1.35;;
64712;SDS011;51140;45.340;5.980;2022-08-21T05:20:09;5.45;;;1.40;;
64712;SDS011;51140;45.340;5.980;2022-08-21T05:22:36;3.78;;;1.30;;
64712;SDS011;51140;45.340;5.980;2022-08-21T05:25:02;5.28;;;1.50;;
64712;SDS011;51140;45.340;5.980;2022-08-21T05:27:28;3.05;;;1.17;;
64712;SDS011;51140;45.340;5.980;2022-08-21T05:29:55;6.95;;;1.52;;
64712;SDS011;51140;45.340;5.980;2022-08-21T05:32:21;3.25;;;1.10;;
64712;SDS011;51140;45.340;5.980;2022-08-21T05:34:46;3.42;;;1.33;;
64712;SDS011;51140;45.340;5.980;2022-08-21T05:37:12;5.57;;;1.30;;
64712;SDS011;51140;45.340;5.980;2022-08-21T05:39:37;2.75;;;1.20;;
64712;SDS011;51140;45.340;5.980;2022-08-21T05:42:03;3.63;;;1.38;;
64712;SDS011;51140;45.340;5.980;2022-08-21T05:44:28;7.03;;;1.50;;
64712;SDS011;51140;45.340;5.980;2022-08-21T05:46:53;3.38;;;1.20;;
64712;SDS011;51140;45.340;5.980;2022-08-21T05:49:19;3.88;;;1.23;;
64712;SDS011;51140;45.340;5.980;2022-08-21T05:51:44;2.85;;;1.20;;
64712;SDS011;51140;45.340;5.980;2022-08-21T05:54:10;5.15;;;1.40;;
64712;SDS011;51140;45.340;5.980;2022-08-21T05:56:36;2.22;;;1.13;;
64712;SDS011;51140;45.340;5.980;2022-08-21T05:59:02;8.35;;;1.40;;
64712;SDS011;51140;45.340;5.980;2022-08-21T06:01:28;2.45;;;1.20;;
64712;SDS011;51140;45.340;5.980;2022-08-21T06:03:53;2.97;;;1.52;;
64712;SDS011;51140;45.340;5.980;2022-08-21T06:06:19;3.33;;;1.20;;
64712;SDS011;51140;45.340;5.980;2022-08-21T06:08:44;3.60;;;1.38;;
64712;SDS011;51140;45.340;5.980;2022-08-21T06:11:10;4.32;;;1.10;;
64712;SDS011;51140;45.340;5.980;2022-08-21T06:13:36;2.33;;;1.10;;
64712;SDS011;51140;45.340;5.980;2022-08-21T06:16:10;3.25;;;1.20;;
64712;SDS011;51140;45.340;5.980;2022-08-21T06:21:03;3.75;;;1.10;;
64712;SDS011;51140;45.340;5.980;2022-08-21T06:23:30;3.90;;;1.13;;
64712;SDS011;51140;45.340;5.980;2022-08-21T06:25:56;3.25;;;1.20;;
64712;SDS011;51140;45.340;5.980;2022-08-21T06:28:21;3.83;;;1.20;;
64712;SDS011;51140;45.340;5.980;2022-08-21T06:30:46;3.45;;;1.45;;
64712;SDS011;51140;45.340;5.980;2022-08-21T06:33:12;6.40;;;1.33;;
64712;SDS011;51140;45.340;5.980;2022-08-21T06:35:37;2.28;;;1.00;;
64712;SDS011;51140;45.340;5.980;2022-08-21T06:38:03;4.13;;;1.65;;
64712;SDS011;51140;45.340;5.980;2022-08-21T06:40:29;7.22;;;1.45;;
64712;SDS011;51140;45.340;5.980;2022-08-21T06:42:55;6.45;;;1.45;;
64712;SDS011;51140;45.340;5.980;2022-08-21T06:45:23;3.33;;;1.20;;
64712;SDS011;51140;45.340;5.980;2022-08-21T06:47:49;5.93;;;1.30;;
64712;SDS011;51140;45.340;5.980;2022-08-21T06:50:14;4.07;;;1.23;;
64712;SDS011;51140;45.340;5.980;2022-08-21T06:52:40;2.92;;;1.02;;
64712;SDS011;51140;45.340;5.980;2022-08-21T06:55:06;2.72;;;1.20;;
64712;SDS011;51140;45.340;5.980;2022-08-21T06:57:33;2.88;;;1.33;;
64712;SDS011;51140;45.340;5.980;2022-08-21T06:59:58;4.28;;;1.35;;
64712;SDS011;51140;45.340;5.980;2022-08-21T07:02:24;4.40;;;1.33;;
64712;SDS011;51140;45.340;5.980;2022-08-21T07:04:49;3.42;;;1.30;;
64712;SDS011;51140;45.340;5.980;2022-08-21T07:07:15;2.83;;;1.33;;
64712;SDS011;51140;45.340;5.980;2022-08-21T07:09:42;4.15;;;1.23;;
64712;SDS011;51140;45.340;5.980;2022-08-21T07:12:08;5.07;;;1.42;;
64712;SDS011;51140;45.340;5.980;2022-08-21T07:14:35;7.25;;;1.48;;
64712;SDS011;51140;45.340;5.980;2022-08-21T07:17:00;3.53;;;1.40;;
64712;SDS011;51140;45.340;5.980;2022-08-21T07:19:26;7.85;;;1.40;;
64712;SDS011;51140;45.340;5.980;2022-08-21T07:21:52;3.90;;;1.13;;
64712;SDS011;51140;45.340;5.980;2022-08-21T07:24:21;5.10;;;1.55;;
64712;SDS011;51140;45.340;5.980;2022-08-21T07:26:47;3.70;;;1.63;;
64712;SDS011;51140;45.340;5.980;2022-08-21T07:29:12;4.47;;;1.40;;
64712;SDS011;51140;45.340;5.980;2022-08-21T07:31:38;4.78;;;1.67;;
64712;SDS011;51140;45.340;5.980;2022-08-21T07:34:03;5.50;;;1.70;;
64712;SDS011;51140;45.340;5.980;2022-08-21T07:36:28;3.72;;;1.23;;
64712;SDS011;51140;45.340;5.980;2022-08-21T07:38:54;7.32;;;1.63;;
64712;SDS011;51140;45.340;5.980;2022-08-21T07:41:21;4.10;;;1.40;;
64712;SDS011;51140;45.340;5.980;2022-08-21T07:43:49;4.25;;;1.85;;
64712;SDS011;51140;45.340;5.980;2022-08-21T07:46:14;4.50;;;1.45;;
64712;SDS011;51140;45.340;5.980;2022-08-21T07:48:39;3.88;;;1.50;;
64712;SDS011;51140;45.340;5.980;2022-08-21T07:51:06;2.78;;;1.30;;
64712;SDS011;51140;45.340;5.980;2022-08-21T07:53:34;3.25;;;1.50;;
64712;SDS011;51140;45.340;5.980;2022-08-21T07:56:00;5.70;;;1.60;;
64712;SDS011;51140;45.340;5.980;2022-08-21T07:58:26;3.92;;;1.38;;
64712;SDS011;51140;45.340;5.980;2022-08-21T08:00:51;3.75;;;1.80;;
64712;SDS011;51140;45.340;5.980;2022-08-21T08:03:17;3.88;;;1.65;;
64712;SDS011;51140;45.340;5.980;2022-08-21T08:05:42;3.85;;;1.65;;
64712;SDS011;51140;45.340;5.980;2022-08-21T08:08:08;3.47;;;1.50;;
64712;SDS011;51140;45.340;5.980;2022-08-21T08:10:33;4.22;;;1.63;;
64712;SDS011;51140;45.340;5.980;2022-08-21T08:12:58;3.08;;;1.58;;
64712;SDS011;51140;45.340;5.980;2022-08-21T08:15:25;4.70;;;1.67;;
64712;SDS011;51140;45.340;5.980;2022-08-21T08:17:52;4.10;;;1.58;;
64712;SDS011;51140;45.340;5.980;2022-08-21T08:20:18;4.22;;;1.50;;
64712;SDS011;51140;45.340;5.980;2022-08-21T08:22:45;5.72;;;1.73;;
64712;SDS011;51140;45.340;5.980;2022-08-21T08:25:12;4.97;;;1.67;;
64712;SDS011;51140;45.340;5.980;2022-08-21T08:27:39;3.83;;;1.70;;
64712;SDS011;51140;45.340;5.980;2022-08-21T08:30:05;3.85;;;1.65;;
64712;SDS011;51140;45.340;5.980;2022-08-21T08:32:31;4.35;;;1.70;;
64712;SDS011;51140;45.340;5.980;2022-08-21T08:34:57;3.45;;;1.40;;
64712;SDS011;51140;45.340;5.980;2022-08-21T08:37:22;4.10;;;1.50;;
64712;SDS011;51140;45.340;5.980;2022-08-21T08:39:48;3.80;;;1.50;;
64712;SDS011;51140;45.340;5.980;2022-08-21T08:42:15;2.50;;;1.30;;
64712;SDS011;51140;45.340;5.980;2022-08-21T08:44:43;4.13;;;1.50;;
64712;SDS011;51140;45.340;5.980;2022-08-21T08:47:11;3.80;;;1.35;;
64712;SDS011;51140;45.340;5.980;2022-08-21T08:55:17;2.75;;;1.40;;
64712;SDS011;51140;45.340;5.980;2022-08-21T08:57:46;2.70;;;1.35;;
64712;SDS011;51140;45.340;5.980;2022-08-21T09:00:15;2.85;;;1.40;;
64712;SDS011;51140;45.340;5.980;2022-08-21T09:02:44;4.80;;;1.40;;
64712;SDS011;51140;45.340;5.980;2022-08-21T09:05:17;2.45;;;1.30;;
64712;SDS011;51140;45.340;5.980;2022-08-21T09:13:29;2.95;;;1.25;;
64712;SDS011;51140;45.340;5.980;2022-08-21T09:27:08;2.33;;;1.10;;
64712;SDS011;51140;45.340;5.980;2022-08-21T09:29:42;4.88;;;1.40;;
64712;SDS011;51140;45.340;5.980;2022-08-21T09:32:19;2.50;;;1.17;;
64712;SDS011;51140;45.340;5.980;2022-08-21T09:37:32;2.47;;;1.30;;
64712;SDS011;51140;45.340;5.980;2022-08-21T09:40:00;4.20;;;1.15;;
64712;SDS011;51140;45.340;5.980;2022-08-21T09:42:30;2.95;;;1.00;;
64712;SDS011;51140;45.340;5.980;2022-08-21T09:45:32;2.42;;;1.13;;
64712;SDS011;51140;45.340;5.980;2022-08-21T09:47:51;2.25;;;1.23;;
64712;SDS011;51140;45.340;5.980;2022-08-21T09:50:18;2.95;;;1.20;;
64712;SDS011;51140;45.340;5.980;2022-08-21T09:52:48;2.30;;;0.90;;
64712;SDS011;51140;45.340;5.980;2022-08-21T09:55:19;1.77;;;1.00;;
64712;SDS011;51140;45.340;5.980;2022-08-21T09:58:06;2.70;;;1.02;;
64712;SDS011;51140;45.340;5.980;2022-08-21T10:00:33;1.85;;;1.10;;
64712;SDS011;51140;45.340;5.980;2022-08-21T10:05:38;2.40;;;1.20;;
64712;SDS011;51140;45.340;5.980;2022-08-21T10:08:04;2.45;;;1.05;;
64712;SDS011;51140;45.340;5.980;2022-08-21T10:10:31;1.65;;;0.90;;
64712;SDS011;51140;45.340;5.980;2022-08-21T10:13:16;4.57;;;1.10;;
64712;SDS011;51140;45.340;5.980;2022-08-21T10:24:33;3.22;;;0.90;;
64712;SDS011;51140;45.340;5.980;2022-08-21T10:37:46;1.50;;;0.88;;
64712;SDS011;51140;45.340;5.980;2022-08-21T10:43:36;1.13;;;0.75;;
64712;SDS011;51140;45.340;5.980;2022-08-21T10:46:03;1.20;;;0.80;;
64712;SDS011;51140;45.340;5.980;2022-08-21T10:49:07;1.90;;;0.90;;
64712;SDS011;51140;45.340;5.980;2022-08-21T10:51:35;1.50;;;0.90;;
64712;SDS011;51140;45.340;5.980;2022-08-21T10:56:42;2.30;;;0.90;;
64712;SDS011;51140;45.340;5.980;2022-08-21T11:01:42;1.15;;;0.80;;
64712;SDS011;51140;45.340;5.980;2022-08-21T11:06:56;1.67;;;0.80;;
64712;SDS011;51140;45.340;5.980;2022-08-21T11:09:26;1.38;;;0.80;;
64712;SDS011;51140;45.340;5.980;2022-08-21T11:12:00;1.58;;;0.80;;
64712;SDS011;51140;45.340;5.980;2022-08-21T11:17:49;1.80;;;0.90;;
64712;SDS011;51140;45.340;5.980;2022-08-21T11:20:31;1.73;;;1.00;;
64712;SDS011;51140;45.340;5.980;2022-08-21T11:23:07;2.50;;;1.00;;
64712;SDS011;51140;45.340;5.980;2022-08-21T11:25:47;1.52;;;0.88;;
64712;SDS011;51140;45.340;5.980;2022-08-21T11:28:20;1.23;;;0.70;;
64712;SDS011;51140;45.340;5.980;2022-08-21T11:33:53;2.28;;;1.08;;
64712;SDS011;51140;45.340;5.980;2022-08-21T11:36:57;2.85;;;1.40;;
64712;SDS011;51140;45.340;5.980;2022-08-21T11:39:51;1.33;;;0.90;;
64712;SDS011;51140;45.340;5.980;2022-08-21T11:42:30;2.25;;;1.00;;
64712;SDS011;51140;45.340;5.980;2022-08-21T11:50:38;2.30;;;0.88;;
64712;SDS011;51140;45.340;5.980;2022-08-21T11:53:11;1.85;;;1.00;;
64712;SDS011;51140;45.340;5.980;2022-08-21T11:55:47;2.33;;;1.00;;
64712;SDS011;51140;45.340;5.980;2022-08-21T11:58:20;2.75;;;0.70;;
64712;SDS011;51140;45.340;5.980;2022-08-21T12:01:00;1.70;;;0.98;;
64712;SDS011;51140;45.340;5.980;2022-08-21T12:03:31;2.47;;;1.10;;
64712;SDS011;51140;45.340;5.980;2022-08-21T12:06:02;1.33;;;0.85;;
64712;SDS011;51140;45.340;5.980;2022-08-21T12:08:32;3.67;;;0.95;;
64712;SDS011;51140;45.340;5.980;2022-08-21T12:13:35;2.72;;;1.00;;
64712;SDS011;51140;45.340;5.980;2022-08-21T12:16:06;1.77;;;0.80;;
64712;SDS011;51140;45.340;5.980;2022-08-21T12:18:37;2.85;;;1.00;;
64712;SDS011;51140;45.340;5.980;2022-08-21T12:26:29;1.08;;;0.80;;
64712;SDS011;51140;45.340;5.980;2022-08-21T12:29:21;4.95;;;0.90;;
64712;SDS011;51140;45.340;5.980;2022-08-21T12:31:52;2.45;;;0.80;;
64712;SDS011;51140;45.340;5.980;2022-08-21T12:34:23;1.90;;;1.00;;
64712;SDS011;51140;45.340;5.980;2022-08-21T12:37:06;2.80;;;1.00;;
64712;SDS011;51140;45.340;5.980;2022-08-21T12:39:42;2.67;;;0.82;;
64712;SDS011;51140;45.340;5.980;2022-08-21T12:42:20;2.33;;;1.05;;
64712;SDS011;51140;45.340;5.980;2022-08-21T12:44:55;2.63;;;1.10;;
64712;SDS011;51140;45.340;5.980;2022-08-21T12:47:28;1.58;;;0.80;;
64712;SDS011;51140;45.340;5.980;2022-08-21T12:50:57;4.28;;;0.90;;
64712;SDS011;51140;45.340;5.980;2022-08-21T12:53:02;2.00;;;0.90;;
64712;SDS011;51140;45.340;5.980;2022-08-21T12:55:33;2.13;;;0.90;;
64712;SDS011;51140;45.340;5.980;2022-08-21T12:57:59;1.55;;;0.90;;
64712;SDS011;51140;45.340;5.980;2022-08-21T13:00:26;2.60;;;1.00;;
64712;SDS011;51140;45.340;5.980;2022-08-21T13:02:53;1.38;;;0.70;;
64712;SDS011;51140;45.340;5.980;2022-08-21T13:05:35;2.15;;;0.90;;
64712;SDS011;51140;45.340;5.980;2022-08-21T13:08:05;2.13;;;1.10;;
64712;SDS011;51140;45.340;5.980;2022-08-21T13:10:33;2.80;;;0.90;;
64712;SDS011;51140;45.340;5.980;2022-08-21T13:13:02;3.40;;;0.90;;
64712;SDS011;51140;45.340;5.980;2022-08-21T13:15:34;2.08;;;1.00;;
64712;SDS011;51140;45.340;5.980;2022-08-21T13:18:03;1.27;;;0.73;;
64712;SDS011;51140;45.340;5.980;2022-08-21T13:20:33;1.98;;;0.90;;
64712;SDS011;51140;45.340;5.980;2022-08-21T13:23:02;3.33;;;0.90;;
64712;SDS011;51140;45.340;5.980;2022-08-21T13:25:43;2.95;;;1.05;;
64712;SDS011;51140;45.340;5.980;2022-08-21T13:28:10;1.40;;;0.80;;
64712;SDS011;51140;45.340;5.980;2022-08-21T13:30:46;1.35;;;0.70;;
64712;SDS011;51140;45.340;5.980;2022-08-21T13:33:15;2.28;;;1.00;;
64712;SDS011;51140;45.340;5.980;2022-08-21T13:35:57;1.67;;;0.90;;
64712;SDS011;51140;45.340;5.980;2022-08-21T13:38:26;2.80;;;0.80;;
64712;SDS011;51140;45.340;5.980;2022-08-21T13:40:55;2.75;;;0.80;;
64712;SDS011;51140;45.340;5.980;2022-08-21T13:43:25;1.48;;;0.80;;
64712;SDS011;51140;45.340;5.980;2022-08-21T13:45:54;2.03;;;0.90;;
64712;SDS011;51140;45.340;5.980;2022-08-21T13:48:21;3.78;;;0.98;;
64712;SDS011;51140;45.340;5.980;2022-08-21T13:50:50;2.08;;;1.00;;
64712;SDS011;51140;45.340;5.980;2022-08-21T13:53:23;1.23;;;0.73;;
64712;SDS011;51140;45.340;5.980;2022-08-21T13:55:54;1.67;;;0.70;;
64712;SDS011;51140;45.340;5.980;2022-08-21T13:58:43;2.03;;;0.75;;
64712;SDS011;51140;45.340;5.980;2022-08-21T14:01:21;2.60;;;0.82;;
64712;SDS011;51140;45.340;5.980;2022-08-21T14:04:14;1.02;;;0.70;;
64712;SDS011;51140;45.340;5.980;2022-08-21T14:06:44;3.08;;;0.70;;
64712;SDS011;51140;45.340;5.980;2022-08-21T14:09:12;1.92;;;0.90;;
64712;SDS011;51140;45.340;5.980;2022-08-21T14:11:50;1.05;;;0.77;;
64712;SDS011;51140;45.340;5.980;2022-08-21T14:14:20;3.88;;;0.80;;
64712;SDS011;51140;45.340;5.980;2022-08-21T14:17:25;2.13;;;0.80;;
64712;SDS011;51140;45.340;5.980;2022-08-21T14:19:51;1.88;;;0.75;;
64712;SDS011;51140;45.340;5.980;2022-08-21T14:22:23;2.85;;;0.80;;
64712;SDS011;51140;45.340;5.980;2022-08-21T14:27:54;2.47;;;0.80;;
64712;SDS011;51140;45.340;5.980;2022-08-21T14:32:49;1.80;;;0.90;;
64712;SDS011;51140;45.340;5.980;2022-08-21T14:35:14;1.83;;;0.90;;
64712;SDS011;51140;45.340;5.980;2022-08-21T14:37:42;1.08;;;0.80;;
64712;SDS011;51140;45.340;5.980;2022-08-21T14:40:09;2.78;;;0.90;;
64712;SDS011;51140;45.340;5.980;2022-08-21T14:42:35;1.95;;;0.90;;
64712;SDS011;51140;45.340;5.980;2022-08-21T14:45:02;1.67;;;0.80;;
64712;SDS011;51140;45.340;5.980;2022-08-21T14:47:32;2.05;;;0.80;;
64712;SDS011;51140;45.340;5.980;2022-08-21T14:49:57;2.20;;;0.82;;
64712;SDS011;51140;45.340;5.980;2022-08-21T14:52:23;1.60;;;0.70;;
64712;SDS011;51140;45.340;5.980;2022-08-21T14:54:49;1.63;;;0.70;;
64712;SDS011;51140;45.340;5.980;2022-08-21T14:57:14;3.67;;;0.80;;
64712;SDS011;51140;45.340;5.980;2022-08-21T14:59:40;1.63;;;0.70;;
64712;SDS011;51140;45.340;5.980;2022-08-21T15:02:06;2.15;;;0.70;;
64712;SDS011;51140;45.340;5.980;2022-08-21T15:04:32;1.42;;;0.70;;
64712;SDS011;51140;45.340;5.980;2022-08-21T15:06:58;1.25;;;0.70;;
64712;SDS011;51140;45.340;5.980;2022-08-21T15:09:23;2.53;;;0.80;;
64712;SDS011;51140;45.340;5.980;2022-08-21T15:11:49;1.67;;;0.73;;
64712;SDS011;51140;45.340;5.980;2022-08-21T15:14:18;2.72;;;0.90;;
64712;SDS011;51140;45.340;5.980;2022-08-21T15:16:47;1.75;;;0.85;;
64712;SDS011;51140;45.340;5.980;2022-08-21T15:19:13;1.60;;;0.80;;
64712;SDS011;51140;45.340;5.980;2022-08-21T15:21:38;2.60;;;0.77;;
64712;SDS011;51140;45.340;5.980;2022-08-21T15:24:04;1.83;;;0.80;;
64712;SDS011;51140;45.340;5.980;2022-08-21T15:26:29;1.05;;;0.80;;
64712;SDS011;51140;45.340;5.980;2022-08-21T15:28:55;4.20;;;0.70;;
64712;SDS011;51140;45.340;5.980;2022-08-21T15:31:20;3.08;;;0.70;;
64712;SDS011;51140;45.340;5.980;2022-08-21T15:33:46;1.70;;;0.63;;
64712;SDS011;51140;45.340;5.980;2022-08-21T15:36:11;2.15;;;0.80;;
64712;SDS011;51140;45.340;5.980;2022-08-21T15:38:37;2.58;;;0.75;;
64712;SDS011;51140;45.340;5.980;2022-08-21T15:41:03;1.60;;;0.70;;
64712;SDS011;51140;45.340;5.980;2022-08-21T15:43:30;2.97;;;1.00;;
64712;SDS011;51140;45.340;5.980;2022-08-21T15:46:02;3.60;;;1.00;;
64712;SDS011;51140;45.340;5.980;2022-08-21T15:48:28;2.55;;;0.80;;
64712;SDS011;51140;45.340;5.980;2022-08-21T15:50:54;2.25;;;0.88;;
64712;SDS011;51140;45.340;5.980;2022-08-21T15:53:19;3.42;;;0.82;;
64712;SDS011;51140;45.340;5.980;2022-08-21T15:55:44;3.05;;;1.00;;
64712;SDS011;51140;45.340;5.980;2022-08-21T15:58:14;2.55;;;0.80;;
64712;SDS011;51140;45.340;5.980;2022-08-21T16:00:40;2.42;;;0.98;;
64712;SDS011;51140;45.340;5.980;2022-08-21T16:03:09;4.90;;;1.50;;
64712;SDS011;51140;45.340;5.980;2022-08-21T16:05:39;5.40;;;1.20;;
64712;SDS011;51140;45.340;5.980;2022-08-21T16:08:04;2.83;;;1.00;;
64712;SDS011;51140;45.340;5.980;2022-08-21T16:10:30;2.33;;;0.95;;
64712;SDS011;51140;45.340;5.980;2022-08-21T16:12:57;3.08;;;0.90;;
64712;SDS011;51140;45.340;5.980;2022-08-21T16:15:28;2.78;;;0.90;;
64712;SDS011;51140;45.340;5.980;2022-08-21T16:17:55;2.78;;;0.95;;
64712;SDS011;51140;45.340;5.980;2022-08-21T16:20:22;3.67;;;1.10;;
64712;SDS011;51140;45.340;5.980;2022-08-21T16:22:51;3.88;;;1.27;;
64712;SDS011;51140;45.340;5.980;2022-08-21T16:25:18;4.07;;;1.05;;